createdAt,value
2022-10-23T00:01:41.023Z,72.69
2022-10-23T00:04:15.957Z,72.93
2022-10-23T00:06:44.556Z,73.26
2022-10-23T00:09:13.749Z,72.99
2022-10-23T00:11:42.220Z,73.49
2022-10-23T00:14:09.245Z,73.80
2022-10-23T00:16:37.180Z,73.90
2022-10-23T00:19:04.985Z,73.97
2022-10-23T00:21:32.299Z,73.76
2022-10-23T00:23:59.481Z,73.70
2022-10-23T00:26:26.997Z,74.00
2022-10-23T00:28:55.329Z,73.64
2022-10-23T00:31:23.475Z,73.90
2022-10-23T00:33:50.934Z,73.56
2022-10-23T00:36:20.188Z,73.96
2022-10-23T00:38:47.299Z,73.78
2022-10-23T00:41:18.941Z,73.47
2022-10-23T00:44:03.190Z,73.97
2022-10-23T00:46:31.531Z,73.67
2022-10-23T00:48:59.316Z,73.90
2022-10-23T00:51:29.810Z,74.00
2022-10-23T00:54:22.802Z,74.14
2022-10-23T00:56:48.508Z,74.53
2022-10-23T00:59:16.200Z,74.21
2022-10-23T01:01:44.730Z,73.91
2022-10-23T01:04:12.132Z,74.44
2022-10-23T01:06:51.419Z,73.87
2022-10-23T01:09:22.223Z,74.39
2022-10-23T01:12:00.235Z,73.99
2022-10-23T01:14:37.131Z,73.57
2022-10-23T01:17:08.107Z,73.96
2022-10-23T01:20:15.220Z,73.74
2022-10-23T01:23:18.308Z,73.05
2022-10-23T01:26:03.989Z,74.12
2022-10-23T01:28:42.795Z,74.57
2022-10-23T01:31:23.089Z,73.71
2022-10-23T01:33:57.620Z,73.87
2022-10-23T01:36:28.366Z,73.91
2022-10-23T01:39:12.325Z,73.69
2022-10-23T01:42:00.024Z,74.25
2022-10-23T01:45:03.109Z,74.73
2022-10-23T01:47:34.463Z,74.59
2022-10-23T01:50:05.512Z,73.91
2022-10-23T01:52:32.546Z,73.91
2022-10-23T01:55:01.571Z,73.15
2022-10-23T01:57:33.444Z,72.48
2022-10-23T02:00:11.642Z,74.12
2022-10-23T02:02:41.863Z,73.39
2022-10-23T02:05:15.416Z,72.37
2022-10-23T02:07:43.252Z,71.81
2022-10-23T02:10:13.610Z,71.94
2022-10-23T02:12:46.664Z,71.61
2022-10-23T02:15:19.402Z,72.41
2022-10-23T02:17:55.726Z,72.62
2022-10-23T02:20:29.479Z,72.85
2022-10-23T02:23:09.097Z,72.43
2022-10-23T02:26:04.916Z,71.57
2022-10-23T02:28:39.809Z,74.07
2022-10-23T02:31:12.687Z,73.75
2022-10-23T02:33:40.601Z,73.61
2022-10-23T02:36:09.001Z,72.97
2022-10-23T02:38:41.721Z,72.96
2022-10-23T02:41:51.296Z,72.87
2022-10-23T02:44:40.879Z,72.50
2022-10-23T02:47:25.251Z,72.86
2022-10-23T02:50:06.377Z,75.25
2022-10-23T02:52:33.562Z,74.81
2022-10-23T02:55:06.509Z,75.10
2022-10-23T02:57:45.224Z,75.50
2022-10-23T03:00:16.622Z,75.61
2022-10-23T03:03:02.686Z,75.45
2022-10-23T03:05:36.075Z,75.38
2022-10-23T03:08:08.012Z,76.09
2022-10-23T03:10:36.021Z,76.21
2022-10-23T03:13:03.704Z,77.46
2022-10-23T03:15:30.886Z,77.59
2022-10-23T03:17:58.162Z,78.54
2022-10-23T03:20:25.419Z,78.82
2022-10-23T03:22:53.029Z,79.06
2022-10-23T03:25:20.234Z,79.22
2022-10-23T03:27:47.188Z,79.82
2022-10-23T03:30:14.401Z,80.33
2022-10-23T03:32:41.718Z,81.20
2022-10-23T03:35:09.595Z,80.84
2022-10-23T03:37:36.665Z,81.00
2022-10-23T03:40:04.926Z,81.09
2022-10-23T03:42:31.921Z,82.24
2022-10-23T03:44:59.194Z,82.23
2022-10-23T03:47:26.205Z,82.53
2022-10-23T03:49:53.522Z,82.54
2022-10-23T03:52:20.485Z,83.62
2022-10-23T03:54:47.794Z,83.36
2022-10-23T03:57:14.816Z,83.69
2022-10-23T03:59:42.012Z,83.58
2022-10-23T04:02:09.333Z,84.13
2022-10-23T04:04:36.618Z,84.34
2022-10-23T04:07:04.612Z,84.61
2022-10-23T04:09:32.320Z,84.84
2022-10-23T04:11:59.485Z,84.63
2022-10-23T04:14:26.805Z,85.00
2022-10-23T04:16:54.129Z,85.29
2022-10-23T04:19:21.381Z,85.64
2022-10-23T04:21:48.534Z,85.64
2022-10-23T04:24:15.854Z,85.47
2022-10-23T04:26:42.817Z,85.67
2022-10-23T04:29:10.051Z,85.68
2022-10-23T04:31:37.326Z,85.97
2022-10-23T04:36:36.821Z,86.32
2022-10-23T04:39:06.773Z,86.08
2022-10-23T04:41:34.006Z,85.94
2022-10-23T04:44:01.626Z,86.10
2022-10-23T04:46:30.734Z,86.34
2022-10-23T04:48:58.205Z,86.96
2022-10-23T04:51:25.257Z,86.53
2022-10-23T04:53:52.513Z,86.83
2022-10-23T04:56:20.437Z,87.16
2022-10-23T04:58:47.464Z,87.01
2022-10-23T05:01:14.919Z,86.91
2022-10-23T05:03:41.943Z,87.10
2022-10-23T05:06:09.294Z,86.90
2022-10-23T05:08:38.847Z,87.16
2022-10-23T05:11:07.846Z,86.78
2022-10-23T05:13:35.467Z,87.10
2022-10-23T05:16:03.090Z,86.71
2022-10-23T05:18:54.286Z,86.83
2022-10-23T05:21:29.604Z,86.75
2022-10-23T05:23:57.673Z,87.44
2022-10-23T05:26:25.227Z,87.42
2022-10-23T05:28:53.699Z,87.30
2022-10-23T05:31:25.535Z,87.22
2022-10-23T05:33:55.510Z,86.86
2022-10-23T05:36:24.542Z,87.04
2022-10-23T05:38:53.431Z,87.01
2022-10-23T05:41:21.512Z,87.00
2022-10-23T05:43:54.529Z,86.73
2022-10-23T05:49:25.629Z,86.94
2022-10-23T05:51:54.197Z,87.26
2022-10-23T05:54:27.600Z,86.82
2022-10-23T05:56:58.069Z,87.47
2022-10-23T05:59:29.079Z,87.55
2022-10-23T06:02:00.572Z,87.47
2022-10-23T06:04:33.610Z,87.55
2022-10-23T06:07:00.692Z,87.44
2022-10-23T06:09:30.463Z,87.32
2022-10-23T06:11:57.572Z,87.10
2022-10-23T06:14:25.013Z,87.33
2022-10-23T06:16:52.091Z,87.65
2022-10-23T06:19:19.458Z,87.28
2022-10-23T06:21:46.683Z,87.59
2022-10-23T06:24:15.622Z,87.42
2022-10-23T06:26:42.684Z,87.25
2022-10-23T06:29:10.028Z,86.97
2022-10-23T06:31:37.827Z,87.15
2022-10-23T06:34:07.572Z,86.75
2022-10-23T06:36:38.163Z,86.94
2022-10-23T06:39:07.365Z,86.85
2022-10-23T06:41:34.407Z,86.79
2022-10-23T06:44:26.902Z,86.57
2022-10-23T06:46:54.778Z,86.56
2022-10-23T06:49:24.129Z,86.12
2022-10-23T06:51:51.260Z,86.02
2022-10-23T06:54:19.322Z,86.04
2022-10-23T06:56:46.508Z,85.32
2022-10-23T06:59:16.140Z,85.14
2022-10-23T07:01:43.773Z,85.19
2022-10-23T07:04:13.778Z,84.87
2022-10-23T07:06:43.538Z,84.35
2022-10-23T07:09:12.739Z,83.80
2022-10-23T07:11:44.783Z,83.48
2022-10-23T07:14:15.011Z,83.34
2022-10-23T07:16:45.552Z,82.79
2022-10-23T07:19:12.888Z,82.36
2022-10-23T07:21:40.010Z,81.92
2022-10-23T07:24:14.933Z,81.60
2022-10-23T07:26:48.487Z,81.58
2022-10-23T07:29:15.859Z,80.95
2022-10-23T07:31:43.065Z,80.78
2022-10-23T07:34:12.339Z,79.19
2022-10-23T07:36:39.642Z,77.84
2022-10-23T07:39:12.247Z,77.44
2022-10-23T07:41:39.277Z,77.45
2022-10-23T07:44:06.661Z,77.85
2022-10-23T07:46:33.743Z,77.22
2022-10-23T07:49:01.341Z,76.99
2022-10-23T07:51:28.655Z,76.07
2022-10-23T07:53:56.045Z,76.40
2022-10-23T07:56:26.310Z,76.63
2022-10-23T07:58:54.240Z,76.27
2022-10-23T08:01:37.473Z,75.58
2022-10-23T08:04:05.862Z,76.05
2022-10-23T08:06:35.410Z,75.58
2022-10-23T08:09:06.182Z,75.38
2022-10-23T08:11:37.446Z,75.33
2022-10-23T08:14:07.089Z,75.55
2022-10-23T08:16:37.635Z,74.88
2022-10-23T08:19:10.992Z,74.73
2022-10-23T08:21:40.975Z,74.92
2022-10-23T08:24:13.466Z,75.36
2022-10-23T08:26:43.759Z,75.91
2022-10-23T08:29:11.009Z,75.74
2022-10-23T08:31:41.227Z,75.65
2022-10-23T08:34:12.028Z,75.12
2022-10-23T08:36:47.447Z,74.57
2022-10-23T08:39:15.259Z,74.00
2022-10-23T08:41:50.138Z,74.63
2022-10-23T08:44:31.439Z,74.76
2022-10-23T08:46:59.597Z,74.72
2022-10-23T08:49:32.605Z,75.39
2022-10-23T08:52:10.385Z,76.43
2022-10-23T08:54:49.501Z,76.86
2022-10-23T08:57:23.077Z,77.55
2022-10-23T09:00:05.938Z,77.65
2022-10-23T09:02:46.296Z,77.58
2022-10-23T09:05:16.110Z,78.01
2022-10-23T09:07:57.105Z,78.32
2022-10-23T09:10:25.092Z,78.37
2022-10-23T09:12:54.175Z,78.70
2022-10-23T09:15:46.045Z,78.53
2022-10-23T09:18:16.337Z,78.56
2022-10-23T09:20:46.103Z,78.63
2022-10-23T09:23:20.553Z,78.68
2022-10-23T09:25:55.404Z,78.88
2022-10-23T09:28:33.941Z,78.69
2022-10-23T09:31:38.285Z,78.65
2022-10-23T09:34:09.673Z,78.81
2022-10-23T09:37:26.968Z,78.63
2022-10-23T09:40:23.463Z,78.39
2022-10-23T09:43:04.205Z,78.42
2022-10-23T09:45:34.644Z,78.25
2022-10-23T09:48:19.421Z,78.07
2022-10-23T09:50:57.187Z,77.73
2022-10-23T09:53:47.463Z,77.07
2022-10-23T09:56:53.364Z,76.54
2022-10-23T09:59:31.431Z,74.66
2022-10-23T10:02:01.723Z,74.28
2022-10-23T10:04:43.769Z,73.63
2022-10-23T10:07:30.209Z,73.16
2022-10-23T10:09:59.587Z,72.76
2022-10-23T10:12:33.131Z,72.03
2022-10-23T10:15:20.302Z,72.41
2022-10-23T10:18:21.826Z,72.41
2022-10-23T10:20:55.842Z,72.30
2022-10-23T10:23:42.059Z,72.00
2022-10-23T10:26:53.970Z,72.30
2022-10-23T10:30:01.009Z,72.59
2022-10-23T10:32:51.389Z,73.25
2022-10-23T10:35:38.251Z,73.67
2022-10-23T10:38:40.203Z,73.57
2022-10-23T10:41:22.551Z,74.34
2022-10-23T10:44:26.185Z,74.33
2022-10-23T10:47:21.768Z,74.72
2022-10-23T10:50:02.686Z,74.25
2022-10-23T10:53:20.546Z,74.61
2022-10-23T10:56:02.501Z,74.79
2022-10-23T10:58:50.032Z,75.05
2022-10-23T11:01:35.477Z,74.86
2022-10-23T11:04:38.884Z,75.18
2022-10-23T11:07:15.251Z,75.65
2022-10-23T11:09:43.540Z,75.92
2022-10-23T11:12:22.075Z,76.09
2022-10-23T11:14:50.559Z,75.77
2022-10-23T11:17:29.555Z,76.35
2022-10-23T11:20:34.670Z,76.04
2022-10-23T11:23:22.480Z,75.95
2022-10-23T11:26:47.299Z,75.79
2022-10-23T11:29:19.459Z,76.26
2022-10-23T11:32:07.116Z,75.75
2022-10-23T11:35:04.229Z,75.50
2022-10-23T11:37:31.680Z,75.10
2022-10-23T11:40:10.575Z,75.28
2022-10-23T11:42:43.950Z,75.08
2022-10-23T11:45:44.058Z,75.31
2022-10-23T11:48:35.611Z,74.90
2022-10-23T11:51:05.560Z,75.45
2022-10-23T11:53:32.499Z,75.19
2022-10-23T11:56:05.836Z,75.45
2022-10-23T11:58:46.045Z,75.56
2022-10-23T12:01:20.896Z,75.42
2022-10-23T12:03:59.919Z,74.66
2022-10-23T12:06:45.560Z,74.99
2022-10-23T12:09:37.499Z,75.06
2022-10-23T12:12:09.332Z,74.75
2022-10-23T12:14:41.534Z,74.45
2022-10-23T12:17:26.970Z,74.25
2022-10-23T12:20:03.866Z,74.24
2022-10-23T12:22:45.006Z,74.39
2022-10-23T12:25:16.903Z,74.08
2022-10-23T12:28:05.631Z,73.20
2022-10-23T12:30:46.213Z,72.98
2022-10-23T12:33:38.573Z,73.04
2022-10-23T12:36:40.169Z,72.90
2022-10-23T12:39:34.276Z,73.41
2022-10-23T12:42:02.991Z,73.35
2022-10-23T12:44:31.184Z,73.48
2022-10-23T12:47:07.135Z,73.21
2022-10-23T12:49:46.087Z,72.39
2022-10-23T12:52:26.996Z,72.45
2022-10-23T12:54:54.039Z,72.09
2022-10-23T12:57:27.119Z,71.66
2022-10-23T13:00:10.579Z,71.56
2022-10-23T13:02:39.553Z,71.69
2022-10-23T13:05:09.069Z,71.42
2022-10-23T13:07:42.793Z,70.96
2022-10-23T13:10:17.575Z,69.98
2022-10-23T13:13:06.086Z,69.33
2022-10-23T13:15:46.281Z,69.49
2022-10-23T13:18:17.822Z,69.81
2022-10-23T13:23:49.196Z,69.31
2022-10-23T13:26:46.074Z,68.82
2022-10-23T13:31:52.848Z,68.74
2022-10-23T13:34:26.520Z,68.70
2022-10-23T13:37:25.201Z,68.49
2022-10-23T13:40:43.400Z,68.72
2022-10-23T13:43:30.845Z,69.29
2022-10-23T13:46:17.433Z,69.28
2022-10-23T13:48:45.015Z,70.16
2022-10-23T13:51:31.233Z,70.41
2022-10-23T13:53:58.549Z,70.88
2022-10-23T13:56:27.992Z,70.88
2022-10-23T13:58:55.466Z,70.86
2022-10-23T14:01:34.839Z,70.50
2022-10-23T14:04:04.581Z,70.66
2022-10-23T14:06:40.503Z,71.01
2022-10-23T14:09:20.365Z,71.44
2022-10-23T14:11:48.111Z,71.58
2022-10-23T14:14:17.688Z,71.49
2022-10-23T14:16:47.516Z,71.95
2022-10-23T14:19:20.679Z,71.63
2022-10-23T14:21:48.435Z,71.91
2022-10-23T14:24:16.035Z,71.93
2022-10-23T14:29:26.622Z,72.25
2022-10-23T14:31:56.142Z,72.10
2022-10-23T14:37:13.741Z,72.15
2022-10-23T14:39:41.118Z,72.12
2022-10-23T14:42:09.692Z,72.63
2022-10-23T14:47:06.450Z,72.47
2022-10-23T14:49:38.020Z,72.77
2022-10-23T14:52:05.833Z,73.22
2022-10-23T14:54:36.556Z,73.10
2022-10-23T14:59:45.472Z,74.02
2022-10-23T15:02:16.063Z,73.89
2022-10-23T15:04:45.932Z,73.92
2022-10-23T15:07:13.779Z,74.57
2022-10-23T15:09:42.199Z,74.58
2022-10-23T15:12:09.365Z,74.71
2022-10-23T15:14:36.810Z,74.78
2022-10-23T15:17:06.545Z,74.85
2022-10-23T15:19:34.847Z,75.21
2022-10-23T15:22:03.415Z,75.22
2022-10-23T15:24:33.496Z,75.32
2022-10-23T15:27:02.411Z,75.36
2022-10-23T15:29:29.700Z,75.75
2022-10-23T15:32:01.752Z,75.63
2022-10-23T15:34:32.373Z,75.39
2022-10-23T15:37:01.085Z,75.72
2022-10-23T15:39:33.944Z,75.72
2022-10-23T15:42:04.225Z,75.36
2022-10-23T15:44:33.314Z,75.62
2022-10-23T15:47:00.953Z,75.50
2022-10-23T15:49:31.968Z,75.50
2022-10-23T15:51:59.948Z,75.70
2022-10-23T15:54:32.688Z,75.50
2022-10-23T15:57:05.075Z,75.41
2022-10-23T15:59:35.483Z,75.80
2022-10-23T16:02:07.225Z,75.31
2022-10-23T16:04:37.596Z,75.00
2022-10-23T16:07:07.137Z,75.04
2022-10-23T16:09:43.388Z,75.36
2022-10-23T16:15:08.607Z,74.76
2022-10-23T16:17:36.190Z,74.80
2022-10-23T16:20:07.421Z,75.07
2022-10-23T16:22:40.242Z,74.85
2022-10-23T16:27:52.942Z,74.53
2022-10-23T16:30:27.831Z,74.30
2022-10-23T16:32:56.572Z,74.00
2022-10-23T16:35:25.067Z,73.80
2022-10-23T16:37:56.177Z,73.39
2022-10-23T16:40:44.051Z,73.51
2022-10-23T16:43:13.909Z,73.56
2022-10-23T16:45:40.932Z,73.15
2022-10-23T16:48:10.167Z,72.73
2022-10-23T16:50:41.851Z,73.03
2022-10-23T16:53:14.567Z,72.51
2022-10-23T16:55:48.569Z,72.53
2022-10-23T16:58:17.635Z,72.72
2022-10-23T17:00:44.635Z,72.55
2022-10-23T17:03:14.177Z,72.50
2022-10-23T17:05:42.328Z,72.60
2022-10-23T17:08:10.467Z,73.25
2022-10-23T17:10:37.466Z,72.88
2022-10-23T17:13:05.059Z,73.08
2022-10-23T17:15:35.510Z,73.13
2022-10-23T17:18:06.767Z,73.31
2022-10-23T17:20:33.872Z,73.37
2022-10-23T17:23:16.565Z,73.71
2022-10-23T17:25:44.495Z,74.68
2022-10-23T17:28:12.343Z,75.75
2022-10-23T17:30:39.668Z,76.34
2022-10-23T17:33:06.878Z,76.54
2022-10-23T17:35:34.143Z,76.68
2022-10-23T17:38:02.648Z,76.53
2022-10-23T17:40:34.063Z,76.90
2022-10-23T17:43:01.301Z,77.18
2022-10-23T17:45:31.209Z,77.24
2022-10-23T17:47:58.265Z,76.99
2022-10-23T17:50:39.911Z,77.60
2022-10-23T17:53:08.177Z,78.10
2022-10-23T17:55:44.804Z,78.24
2022-10-23T17:58:13.300Z,78.27
2022-10-23T18:00:41.273Z,78.65
2022-10-23T18:03:09.553Z,78.49
2022-10-23T18:05:40.628Z,78.53
2022-10-23T18:08:08.666Z,78.72
2022-10-23T18:10:37.034Z,79.14
2022-10-23T18:13:05.212Z,79.08
2022-10-23T18:15:36.490Z,79.17
2022-10-23T18:18:08.678Z,78.86
2022-10-23T18:20:41.052Z,78.89
2022-10-23T18:23:23.256Z,79.09
2022-10-23T18:26:06.469Z,79.25
2022-10-23T18:28:36.182Z,78.96
2022-10-23T18:31:08.602Z,78.81
2022-10-23T18:33:36.293Z,78.59
2022-10-23T18:36:31.689Z,78.55
2022-10-23T18:39:18.397Z,78.37
2022-10-23T18:44:50.209Z,78.50
2022-10-23T18:47:18.994Z,78.40
2022-10-23T18:49:47.179Z,77.98
2022-10-23T18:52:27.162Z,78.57
2022-10-23T18:54:55.115Z,78.08
2022-10-23T18:57:25.723Z,78.14
2022-10-23T19:00:10.138Z,77.95
2022-10-23T19:03:04.234Z,78.23
2022-10-23T19:05:53.728Z,77.99
2022-10-23T19:08:22.139Z,77.87
2022-10-23T19:10:55.697Z,77.79
2022-10-23T19:13:26.046Z,78.15
2022-10-23T19:15:59.051Z,78.20
2022-10-23T19:18:53.980Z,77.84
2022-10-23T19:21:43.407Z,77.74
2022-10-23T19:24:16.499Z,78.01
2022-10-23T19:26:44.529Z,77.86
2022-10-23T19:29:15.658Z,77.96
2022-10-23T19:31:49.291Z,78.15
2022-10-23T19:34:20.325Z,78.32
2022-10-23T19:36:50.090Z,77.97
2022-10-23T19:39:20.534Z,78.24
2022-10-23T19:41:48.003Z,78.58
2022-10-23T19:44:15.531Z,78.60
2022-10-23T19:50:14.546Z,80.65
2022-10-23T19:52:41.941Z,80.44
2022-10-23T19:55:09.676Z,80.80
2022-10-23T19:57:37.283Z,80.82
2022-10-23T20:00:08.091Z,80.99
2022-10-23T20:02:38.741Z,80.95
2022-10-23T20:05:15.746Z,81.27
2022-10-23T20:07:48.656Z,81.17
2022-10-23T20:10:16.443Z,81.36
2022-10-23T20:12:47.541Z,81.25
2022-10-23T20:15:24.611Z,81.41
2022-10-23T20:17:52.402Z,81.80
2022-10-23T20:20:21.265Z,82.04
2022-10-23T20:22:51.005Z,81.94
2022-10-23T20:25:21.867Z,82.50
2022-10-23T20:27:49.355Z,83.38
2022-10-23T20:30:16.401Z,83.34
2022-10-23T20:32:43.748Z,83.43
2022-10-23T20:35:11.211Z,83.69
2022-10-23T20:37:38.557Z,83.83
2022-10-23T20:40:06.009Z,84.16
2022-10-23T20:42:34.820Z,84.04
2022-10-23T20:45:03.769Z,83.93
2022-10-23T20:47:30.994Z,84.39
2022-10-23T20:49:58.368Z,83.92
2022-10-23T20:52:28.614Z,84.26
2022-10-23T20:54:55.704Z,84.22
2022-10-23T20:57:24.303Z,84.07
2022-10-23T20:59:53.327Z,84.29
2022-10-23T21:02:21.050Z,84.54
2022-10-23T21:04:50.879Z,84.80
2022-10-23T21:07:18.519Z,84.84
2022-10-23T21:09:47.045Z,84.79
2022-10-23T21:12:41.863Z,85.12
2022-10-23T21:15:12.132Z,85.19
2022-10-23T21:17:40.937Z,85.24
2022-10-23T21:20:08.248Z,84.78
2022-10-23T21:22:35.580Z,84.86
2022-10-23T21:25:02.599Z,84.50
2022-10-23T21:27:30.906Z,84.63
2022-10-23T21:29:57.907Z,84.87
2022-10-23T21:32:26.794Z,85.49
2022-10-23T21:34:55.197Z,85.60
2022-10-23T21:37:25.011Z,85.79
2022-10-23T21:39:52.193Z,85.52
2022-10-23T21:42:20.171Z,86.10
2022-10-23T21:44:47.193Z,86.14
2022-10-23T21:47:14.558Z,86.38
2022-10-23T21:49:42.101Z,86.96
2022-10-23T21:52:09.425Z,86.63
2022-10-23T21:54:38.174Z,86.62
2022-10-23T21:57:12.685Z,86.35
2022-10-23T21:59:39.681Z,86.40
2022-10-23T22:02:07.099Z,86.04
2022-10-23T22:04:34.209Z,85.78
2022-10-23T22:07:03.199Z,86.00
2022-10-23T22:09:32.158Z,85.88
2022-10-23T22:12:00.392Z,85.90
2022-10-23T22:14:29.265Z,86.30
2022-10-23T22:16:56.581Z,86.63
2022-10-23T22:19:23.576Z,86.25
2022-10-23T22:21:51.230Z,86.08
2022-10-23T22:24:18.553Z,86.11
2022-10-23T22:26:49.682Z,86.52
2022-10-23T22:29:27.584Z,86.58
2022-10-23T22:32:00.410Z,86.54
2022-10-23T22:37:17.141Z,87.37
2022-10-23T22:39:47.392Z,86.84
2022-10-23T22:42:15.375Z,86.57
2022-10-23T22:44:42.310Z,86.45
2022-10-23T22:47:09.689Z,86.65
2022-10-23T22:49:36.785Z,86.49
2022-10-23T22:52:04.672Z,86.84
2022-10-23T22:57:15.335Z,86.88
2022-10-23T22:59:42.930Z,86.78
2022-10-23T23:02:10.442Z,86.97
2022-10-23T23:04:39.019Z,87.20
2022-10-23T23:07:09.254Z,87.82
2022-10-23T23:09:42.605Z,87.72
2022-10-23T23:12:12.755Z,87.49
2022-10-23T23:14:40.147Z,87.88
2022-10-23T23:17:09.367Z,87.44
2022-10-23T23:19:36.368Z,87.79
2022-10-23T23:22:04.104Z,87.74
2022-10-23T23:24:32.213Z,87.39
2022-10-23T23:26:59.597Z,87.70
2022-10-23T23:29:28.415Z,87.44
2022-10-23T23:31:55.794Z,87.41
2022-10-23T23:34:24.826Z,87.25
2022-10-23T23:36:52.299Z,87.26
2022-10-23T23:39:20.496Z,87.34
2022-10-23T23:41:48.105Z,87.40
2022-10-23T23:44:15.616Z,87.45
2022-10-23T23:46:43.554Z,87.61
2022-10-23T23:49:11.794Z,87.62
2022-10-23T23:51:39.247Z,88.15
2022-10-23T23:54:07.620Z,88.57
2022-10-23T23:56:37.249Z,88.67
2022-10-23T23:59:04.926Z,88.88
